Aviation Digital Data Service (ADDS)

Output produced by METARs form (0855 UTC 19 November 2018)
found at http://www.aviationweather.gov/metar/data/
 
RJOB 190800Z 33003KT 280V010 9999 FEW020 SCT060 11/05 Q1016
TAF RJOB 190508Z 1906/2012 35006KT 9999 FEW020 SCT040 
     BECMG 1921/2000 30007KT 
     BECMG 2006/2009 35005KT